Time;durP1;ratioP1;P1;durP2;ratioP2;P2;SDS_P1;SDS_P2;PMS_P1;PMS_P2;Temp;Humidity;BMP_temperature;BMP_pressure;BME280_temperature;BME280_humidity;BME280_pressure;Samples;Min_cycle;Max_cycle;Signal;HPM_P1;HPM_P2
2022/11/19 00:01:20;;;;;;;5.30;2.20;;;;;;;8.75;57.83;101192.84;4928617;28;119840;-74
2022/11/19 00:03:46;;;;;;;6.32;2.50;;;;;;;8.70;58.55;101199.59;4911679;28;119872;-74
2022/11/19 00:06:15;;;;;;;6.10;2.73;;;;;;;8.72;58.58;101199.94;4913270;28;119831;-73
2022/11/19 00:08:58;;;;;;;5.93;2.58;;;;;;;8.71;58.34;101198.38;4932771;28;119407;-74
2022/11/19 00:14:13;;;;;;;5.57;2.60;;;;;;;8.69;58.12;101205.47;4922995;28;119287;-73
2022/11/19 00:16:40;;;;;;;5.22;2.47;;;;;;;8.64;57.97;101205.97;4909552;28;119250;-73
2022/11/19 00:19:06;;;;;;;7.15;2.45;;;;;;;8.58;57.83;101206.50;4932296;28;119529;-74
2022/11/19 00:21:32;;;;;;;3.83;2.38;;;;;;;8.58;58.79;101206.50;4932900;28;119421;-74
2022/11/19 00:23:57;;;;;;;5.22;2.50;;;;;;;8.61;59.08;101213.84;4931717;28;119292;-74
2022/11/19 00:26:23;;;;;;;6.47;2.55;;;;;;;8.62;58.23;101217.34;4939010;28;119464;-73
2022/11/19 00:28:50;;;;;;;4.10;2.47;;;;;;;8.60;58.25;101211.53;4951879;28;119573;-73
2022/11/19 00:31:16;;;;;;;6.20;2.70;;;;;;;8.54;58.55;101216.75;4937362;28;119963;-73
2022/11/19 00:33:43;;;;;;;4.85;2.53;;;;;;;8.44;58.32;101214.97;4927546;28;119380;-73
2022/11/19 00:36:11;;;;;;;6.28;2.55;;;;;;;8.43;58.53;101215.41;4927435;28;120601;-74
2022/11/19 00:38:38;;;;;;;6.37;2.47;;;;;;;8.40;58.79;101217.03;4931118;28;119443;-74
2022/11/19 00:41:10;;;;;;;4.47;2.10;;;;;;;8.38;58.78;101218.63;4944441;28;119300;-73
2022/11/19 00:43:51;;;;;;;5.13;2.40;;;;;;;8.33;59.17;101219.88;4930229;28;119363;-73
2022/11/19 00:46:25;;;;;;;4.80;2.40;;;;;;;8.31;58.62;101219.53;4931992;28;119265;-74
2022/11/19 00:48:53;;;;;;;5.28;2.60;;;;;;;8.27;58.62;101224.28;4925013;28;119323;-74
2022/11/19 00:51:20;;;;;;;5.30;2.50;;;;;;;8.20;58.66;101224.41;4930119;28;119235;-73
2022/11/19 00:53:46;;;;;;;4.15;2.40;;;;;;;8.11;58.96;101229.69;4936075;28;119121;-74
2022/11/19 00:56:15;;;;;;;4.15;2.40;;;;;;;8.05;58.70;101234.88;4931090;28;119798;-73
2022/11/19 00:58:42;;;;;;;4.20;2.40;;;;;;;7.94;59.58;101240.53;4932270;28;119773;-73
2022/11/19 01:01:09;;;;;;;3.45;2.28;;;;;;;7.89;59.45;101241.00;4930691;28;119470;-73
2022/11/19 01:03:36;;;;;;;6.00;2.50;;;;;;;7.92;60.38;101242.13;4930323;28;119497;-72
2022/11/19 01:06:02;;;;;;;5.70;2.60;;;;;;;7.98;59.65;101245.91;4932358;28;119610;-73
2022/11/19 01:08:36;;;;;;;4.88;2.50;;;;;;;8.00;59.98;101238.84;4961841;28;119892;-74
2022/11/19 01:11:10;;;;;;;6.47;2.90;;;;;;;8.05;60.46;101245.81;4921725;28;119636;-73
2022/11/19 01:17:56;;;;;;;4.95;2.65;;;;;;;8.15;60.51;101261.22;4865118;28;119623;-73
2022/11/19 01:20:21;;;;;;;5.78;2.80;;;;;;;8.01;60.53;101262.25;4872005;28;119849;-73
2022/11/19 01:22:47;;;;;;;5.93;3.10;;;;;;;7.92;62.36;101261.25;4866544;28;119736;-73
2022/11/19 01:25:16;;;;;;;5.07;2.90;;;;;;;7.86;63.57;101252.00;4874591;28;119885;-73
2022/11/19 01:27:42;;;;;;;5.20;2.50;;;;;;;7.84;63.78;101257.88;4890480;28;119680;-73
2022/11/19 01:30:08;;;;;;;4.50;2.50;;;;;;;7.77;62.94;101249.78;4890695;28;119341;-73
2022/11/19 01:32:34;;;;;;;5.80;2.60;;;;;;;7.69;63.71;101251.13;4889893;28;119570;-73
2022/11/19 01:35:00;;;;;;;5.53;3.05;;;;;;;7.63;64.64;101247.31;4874313;28;120349;-73
2022/11/19 01:37:26;;;;;;;5.73;3.20;;;;;;;7.67;64.66;101256.22;4894026;28;120176;-73
2022/11/19 01:39:55;;;;;;;4.82;2.88;;;;;;;7.65;64.52;101250.41;4874868;28;119357;-73
2022/11/19 01:45:37;;;;;;;5.13;3.25;;;;;;;7.64;64.21;101251.59;4889856;28;119766;-73
2022/11/19 01:48:26;;;;;;;6.50;3.47;;;;;;;7.57;64.15;101246.22;4890151;28;119532;-73
2022/11/19 01:50:56;;;;;;;5.88;3.22;;;;;;;7.55;63.77;101254.06;4871650;28;120396;-73
2022/11/19 01:53:27;;;;;;;5.43;3.47;;;;;;;7.51;63.43;101256.09;4886168;28;119705;-74
2022/11/19 01:55:55;;;;;;;5.90;3.40;;;;;;;7.44;63.69;101259.72;4929697;28;120193;-73
2022/11/19 01:58:24;;;;;;;6.00;3.30;;;;;;;7.40;63.43;101267.19;4932234;28;119244;-73
2022/11/19 02:00:49;;;;;;;6.45;3.28;;;;;;;7.36;63.26;101271.94;4933981;28;120068;-73
2022/11/19 02:03:17;;;;;;;6.20;3.20;;;;;;;7.33;63.72;101279.00;4923509;28;119819;-73
2022/11/19 02:05:44;;;;;;;4.80;3.40;;;;;;;7.28;63.62;101267.75;4925472;28;119311;-73
2022/11/19 02:08:40;;;;;;;7.22;3.15;;;;;;;7.23;62.81;101276.41;4912892;28;119512;-73
2022/11/19 02:11:23;;;;;;;6.00;3.15;;;;;;;7.15;63.02;101275.75;4919683;28;119174;-73
2022/11/19 02:13:55;;;;;;;5.85;3.10;;;;;;;7.13;63.35;101277.34;4931568;28;119512;-72
2022/11/19 02:16:46;;;;;;;5.47;3.03;;;;;;;7.08;62.90;101270.38;4912308;28;119331;-73
2022/11/19 02:19:15;;;;;;;6.63;3.03;;;;;;;7.09;62.72;101286.34;4910358;28;120373;-73
2022/11/19 02:21:51;;;;;;;6.35;3.13;;;;;;;7.11;63.21;101282.44;4911969;28;120045;-74
2022/11/19 02:24:38;;;;;;;4.13;2.90;;;;;;;7.09;62.58;101280.88;4916009;28;119121;-73
2022/11/19 02:27:18;;;;;;;6.55;3.03;;;;;;;7.08;63.05;101282.06;4910592;28;119759;-73
2022/11/19 02:29:49;;;;;;;5.13;3.08;;;;;;;7.09;62.17;101289.06;4924974;28;119145;-74
2022/11/19 02:32:25;;;;;;;4.25;2.83;;;;;;;7.12;62.75;101290.22;4920925;28;119792;-73
2022/11/19 02:35:03;;;;;;;6.47;3.40;;;;;;;7.06;61.57;101281.72;4930492;28;119468;-72
2022/11/19 02:37:38;;;;;;;4.93;2.60;;;;;;;7.00;61.49;101271.66;4923037;28;119511;-73
2022/11/19 02:40:22;;;;;;;5.25;2.80;;;;;;;7.00;61.83;101279.84;4918165;28;119248;-73
2022/11/19 02:43:00;;;;;;;4.73;2.90;;;;;;;6.96;62.47;101281.88;4915692;28;120085;-73
2022/11/19 02:45:41;;;;;;;4.25;2.55;;;;;;;6.94;61.36;101278.78;4925332;28;119447;-73
2022/11/19 02:48:20;;;;;;;4.75;2.70;;;;;;;6.92;61.21;101278.41;4931427;28;119436;-73
2022/11/19 02:50:51;;;;;;;4.80;2.80;;;;;;;6.87;61.50;101284.34;4931687;28;119701;-73
2022/11/19 02:53:17;;;;;;;4.72;2.60;;;;;;;6.90;61.27;101288.97;4931551;28;119165;-73
2022/11/19 03:06:53;;;;;;;5.07;3.00;;;;;;;6.74;60.56;101276.69;4936570;28;119290;-76
2022/11/19 03:09:20;;;;;;;3.80;2.63;;;;;;;6.77;60.31;101289.50;4928815;28;119382;-76
2022/11/19 03:11:54;;;;;;;5.32;2.90;;;;;;;6.71;59.69;101285.69;4925902;28;120164;-76
2022/11/19 03:17:28;;;;;;;4.40;3.00;;;;;;;6.66;60.51;101288.09;4942867;28;119391;-76
2022/11/19 03:20:11;;;;;;;6.22;3.15;;;;;;;6.62;60.58;101290.84;4925120;28;120031;-76
2022/11/19 03:23:05;;;;;;;5.63;3.20;;;;;;;6.62;60.19;101290.06;4925201;28;119616;-76
2022/11/19 03:25:39;;;;;;;5.53;2.80;;;;;;;6.60;60.17;101290.47;4920795;28;120720;-76
2022/11/19 03:28:11;;;;;;;5.27;3.13;;;;;;;6.61;61.24;101288.53;4932449;28;119571;-76
2022/11/19 03:30:41;;;;;;;5.93;3.42;;;;;;;6.59;60.31;101297.13;4928706;28;120537;-76
2022/11/19 03:33:12;;;;;;;5.15;2.90;;;;;;;6.57;60.31;101295.97;4931659;28;120331;-76
2022/11/19 03:35:46;;;;;;;4.87;3.00;;;;;;;6.56;60.58;101291.72;4926209;28;119167;-76
2022/11/19 03:38:17;;;;;;;4.53;2.90;;;;;;;6.59;59.97;101294.38;4912017;28;119456;-76
2022/11/19 03:40:44;;;;;;;5.03;3.03;;;;;;;6.58;60.43;101295.56;4930531;28;119216;-76
2022/11/19 03:43:15;;;;;;;4.45;2.80;;;;;;;6.59;60.22;101291.66;4921145;28;120342;-76
2022/11/19 03:45:44;;;;;;;6.30;2.72;;;;;;;6.64;60.47;101291.25;4928037;28;120327;-76
2022/11/19 03:48:14;;;;;;;5.45;2.70;;;;;;;6.65;60.27;101294.72;4928304;28;119409;-75
2022/11/19 03:50:43;;;;;;;4.35;2.72;;;;;;;6.66;59.86;101291.59;4928206;28;119700;-76
2022/11/19 03:53:09;;;;;;;3.85;2.72;;;;;;;6.65;59.79;101294.72;4913312;28;122535;-76
2022/11/19 03:55:43;;;;;;;3.70;2.70;;;;;;;6.62;60.19;101290.84;4925609;28;119634;-76
2022/11/19 03:58:10;;;;;;;5.00;2.80;;;;;;;6.65;59.82;101292.78;4937379;28;119948;-76
2022/11/19 04:00:35;;;;;;;5.63;3.10;;;;;;;6.66;60.42;101288.88;4926597;28;119251;-76
2022/11/19 04:03:03;;;;;;;4.83;3.10;;;;;;;6.66;60.09;101288.88;4932206;28;119522;-76
2022/11/19 04:05:29;;;;;;;7.18;3.10;;;;;;;6.64;59.26;101293.19;4918735;28;119850;-76
2022/11/19 04:07:55;;;;;;;4.57;2.92;;;;;;;6.58;59.47;101289.34;4919015;28;119558;-76
2022/11/19 04:10:20;;;;;;;4.60;2.85;;;;;;;6.58;59.62;101295.56;4915213;28;119377;-76
2022/11/19 04:12:46;;;;;;;5.37;2.90;;;;;;;6.55;60.00;101290.16;4930146;28;120582;-75
2022/11/19 04:15:13;;;;;;;4.30;2.83;;;;;;;6.53;60.08;101298.75;4930510;28;119476;-75
2022/11/19 04:17:39;;;;;;;4.53;2.85;;;;;;;6.54;59.63;101300.28;4933530;28;119626;-75
2022/11/19 04:20:08;;;;;;;6.57;2.83;;;;;;;6.54;59.20;101310.44;4947371;28;120008;-76
2022/11/19 04:22:34;;;;;;;5.68;2.80;;;;;;;6.52;58.88;101310.06;4933048;28;119201;-76
2022/11/19 04:24:59;;;;;;;4.78;2.70;;;;;;;6.47;59.56;101286.75;4925998;28;119281;-76
2022/11/19 04:27:25;;;;;;;4.43;2.93;;;;;;;6.49;60.24;101289.84;4920025;28;119328;-76
2022/11/19 04:29:51;;;;;;;5.80;2.70;;;;;;;6.51;60.40;101284.75;4931564;28;119659;-76
2022/11/19 04:32:17;;;;;;;4.15;2.60;;;;;;;6.53;59.59;101287.06;4931389;28;119779;-77
2022/11/19 04:34:51;;;;;;;4.10;2.80;;;;;;;6.57;60.29;101290.53;4923300;28;119613;-76
2022/11/19 04:37:16;;;;;;;6.70;3.07;;;;;;;6.57;60.28;101283.13;4931035;28;119607;-76
2022/11/19 04:39:42;;;;;;;5.75;3.08;;;;;;;6.58;60.23;101292.06;4934684;28;119316;-76
2022/11/19 04:42:08;;;;;;;4.53;2.90;;;;;;;6.57;59.85;101296.75;4925793;28;119342;-76
2022/11/19 04:44:33;;;;;;;4.68;3.10;;;;;;;6.54;58.95;101289.41;4929463;28;119872;-76
2022/11/19 04:46:59;;;;;;;4.73;3.17;;;;;;;6.50;59.56;101285.16;4911298;28;119409;-75
2022/11/19 04:49:25;;;;;;;5.93;3.03;;;;;;;6.33;59.99;101271.34;4930468;28;119295;-76
2022/11/19 04:51:51;;;;;;;6.05;3.17;;;;;;;6.44;59.63;101287.56;4930643;28;119357;-76
2022/11/19 04:54:17;;;;;;;5.63;3.10;;;;;;;6.43;59.59;101292.25;4925658;28;119271;-76
2022/11/19 04:56:43;;;;;;;6.37;3.40;;;;;;;6.39;59.46;101288.03;4928762;28;119803;-76
2022/11/19 04:59:08;;;;;;;5.57;3.33;;;;;;;6.34;59.98;101286.50;4930252;28;119669;-76
2022/11/19 05:01:34;;;;;;;5.15;3.15;;;;;;;6.31;60.05;101286.53;4926599;28;119702;-76
2022/11/19 05:04:15;;;;;;;5.67;3.30;;;;;;;6.35;59.78;101287.28;4926832;28;119483;-76
2022/11/19 05:06:41;;;;;;;5.47;3.10;;;;;;;6.33;59.83;101284.19;4937989;28;119534;-75
2022/11/19 05:09:07;;;;;;;4.80;2.90;;;;;;;6.33;59.47;101278.72;4931089;28;119176;-73
2022/11/19 05:11:32;;;;;;;5.10;3.38;;;;;;;6.31;59.67;101286.53;4928822;28;119662;-73
2022/11/19 05:13:58;;;;;;;4.27;3.03;;;;;;;6.28;59.36;101290.09;4928335;28;119387;-73
2022/11/19 05:16:24;;;;;;;4.80;3.00;;;;;;;6.27;59.26;101289.31;4930992;28;119327;-73
2022/11/19 05:18:50;;;;;;;6.38;3.53;;;;;;;6.26;59.44;101292.44;4934077;28;119841;-74
2022/11/19 05:21:16;;;;;;;5.43;3.33;;;;;;;6.24;59.34;101292.84;4957158;28;119320;-75
2022/11/19 05:24:05;;;;;;;5.10;3.45;;;;;;;6.18;59.03;101293.69;4949111;28;119337;-75
2022/11/19 05:29:14;;;;;;;10.15;5.25;;;;;;;6.01;60.29;101292.69;4984864;28;119815;-75
2022/11/19 05:31:49;;;;;;;5.70;3.80;;;;;;;5.87;59.94;101288.09;4989441;28;119716;-76
2022/11/19 05:34:15;;;;;;;4.80;3.60;;;;;;;5.81;59.75;101292.44;4968386;28;120704;-77
2022/11/19 05:36:41;;;;;;;4.65;3.40;;;;;;;5.68;59.64;101294.09;4969617;28;121569;-80
2022/11/19 05:39:07;;;;;;;4.78;3.50;;;;;;;5.58;60.06;101289.53;4988208;28;119800;-75
2022/11/19 05:41:32;;;;;;;5.97;3.33;;;;;;;5.52;60.48;101305.53;4988323;28;119441;-75
2022/11/19 05:43:58;;;;;;;7.33;3.70;;;;;;;5.46;60.74;101304.41;4954028;28;121004;-77
2022/11/19 05:46:24;;;;;;;6.20;3.60;;;;;;;5.37;60.83;101302.13;4986331;28;119132;-75
2022/11/19 05:48:49;;;;;;;4.85;3.53;;;;;;;5.31;60.75;101303.72;4963289;28;119858;-77
2022/11/19 05:51:15;;;;;;;5.75;3.63;;;;;;;5.30;60.95;101302.16;4983880;28;119874;-75
2022/11/19 05:53:42;;;;;;;4.65;3.30;;;;;;;5.26;61.03;101297.94;4943608;28;120332;-75
2022/11/19 05:56:08;;;;;;;4.60;3.33;;;;;;;5.21;61.66;101289.03;4967909;28;121069;-75
2022/11/19 05:58:34;;;;;;;5.90;3.53;;;;;;;5.22;61.48;101285.13;4960031;28;119909;-76
2022/11/19 06:01:00;;;;;;;4.85;3.53;;;;;;;5.22;61.80;101292.50;4957792;28;119663;-80
2022/11/19 06:03:26;;;;;;;4.73;3.20;;;;;;;5.27;61.58;101299.47;4984664;28;119659;-78
2022/11/19 06:05:52;;;;;;;4.85;3.40;;;;;;;5.25;61.40;101299.88;4964771;28;121737;-75
2022/11/19 06:08:17;;;;;;;6.20;3.40;;;;;;;5.25;61.18;101308.03;4969338;28;119437;-76
2022/11/19 06:10:43;;;;;;;5.53;3.58;;;;;;;5.25;61.71;101299.88;4988706;28;119801;-75
2022/11/19 06:13:09;;;;;;;5.27;3.30;;;;;;;5.24;61.43;101304.53;4963674;28;119682;-75
2022/11/19 06:15:35;;;;;;;7.05;3.70;;;;;;;5.25;62.03;101308.03;4982983;28;119144;-78
2022/11/19 06:18:01;;;;;;;6.43;3.43;;;;;;;5.24;61.94;101303.78;4988104;28;119736;-77
2022/11/19 06:20:26;;;;;;;5.07;3.40;;;;;;;5.24;61.87;101320.09;4966372;28;119366;-79
2022/11/19 06:22:52;;;;;;;6.00;3.80;;;;;;;5.25;62.96;101316.19;4984805;28;119617;-75
2022/11/19 06:25:18;;;;;;;5.22;3.58;;;;;;;5.29;63.70;101319.66;4983931;28;119735;-75
2022/11/19 06:27:44;;;;;;;5.55;3.53;;;;;;;5.44;63.28;101326.56;4980561;28;119439;-75
2022/11/19 06:30:10;;;;;;;4.70;3.60;;;;;;;5.52;62.83;101322.63;4978966;28;119721;-75
2022/11/19 06:32:36;;;;;;;5.50;3.42;;;;;;;5.68;62.04;101333.00;4981231;28;119880;-75
2022/11/19 06:35:02;;;;;;;5.78;3.75;;;;;;;5.76;62.52;101326.31;4977662;28;119264;-75
2022/11/19 06:37:28;;;;;;;6.35;3.50;;;;;;;5.89;62.34;101326.59;4987489;28;119523;-75
2022/11/19 06:39:54;;;;;;;5.13;3.55;;;;;;;6.00;62.16;101332.78;4987985;28;119183;-79
2022/11/19 06:42:36;;;;;;;6.73;3.40;;;;;;;6.09;62.36;101329.56;4988691;28;119708;-77
2022/11/19 06:45:10;;;;;;;6.28;3.80;;;;;;;6.20;61.58;101334.94;4983648;28;120044;-79
2022/11/19 06:47:37;;;;;;;6.20;3.83;;;;;;;6.26;61.66;101325.13;4984210;28;119198;-77
2022/11/19 06:50:04;;;;;;;6.55;4.00;;;;;;;6.32;61.09;101328.97;4992601;28;119311;-76
2022/11/19 06:52:30;;;;;;;6.05;3.45;;;;;;;6.32;60.78;101323.50;4986663;28;119350;-79
2022/11/19 06:54:56;;;;;;;4.50;3.58;;;;;;;6.37;60.67;101326.56;4968490;28;119633;-75
2022/11/19 06:57:21;;;;;;;5.32;3.60;;;;;;;6.38;60.28;101338.22;4986833;28;119962;-76
2022/11/19 06:59:47;;;;;;;6.70;3.90;;;;;;;6.35;60.47;101336.31;4988054;28;119678;-79
2022/11/19 07:02:36;;;;;;;6.93;4.05;;;;;;;6.33;60.81;101333.22;4954434;28;119895;-76
2022/11/19 07:05:31;;;;;;;5.80;3.92;;;;;;;6.31;60.97;101330.13;4928931;28;119700;-75
2022/11/19 07:07:58;;;;;;;6.63;4.07;;;;;;;6.35;60.54;101333.59;4969925;28;119587;-77
2022/11/19 07:10:24;;;;;;;6.07;4.00;;;;;;;6.36;60.66;101321.50;4965637;28;119921;-77
2022/11/19 07:12:50;;;;;;;7.03;4.10;;;;;;;6.43;60.48;101322.22;4967680;28;120023;-75
2022/11/19 07:15:16;;;;;;;6.28;4.30;;;;;;;6.43;60.43;101316.00;4988807;28;119415;-75
2022/11/19 07:17:41;;;;;;;6.90;4.10;;;;;;;6.49;60.11;101319.84;4990341;28;119928;-79
2022/11/19 07:20:08;;;;;;;6.40;4.03;;;;;;;6.50;60.27;101321.38;4971896;28;119497;-78
2022/11/19 07:22:34;;;;;;;7.22;4.50;;;;;;;6.50;59.52;101315.16;4972646;28;120007;-78
2022/11/19 07:24:59;;;;;;;8.23;4.43;;;;;;;6.51;60.30;101324.88;4971417;28;121614;-76
2022/11/19 07:27:25;;;;;;;5.72;4.32;;;;;;;6.52;60.44;101327.19;4990964;28;120214;-81
2022/11/19 07:29:51;;;;;;;7.00;4.30;;;;;;;6.54;60.20;101316.66;4993873;28;119596;-76
2022/11/19 07:32:17;;;;;;;6.13;4.40;;;;;;;6.55;60.26;101314.69;4993285;28;119845;-75
2022/11/19 07:34:50;;;;;;;7.90;4.72;;;;;;;6.54;59.91;101311.19;4989908;28;119692;-76
2022/11/19 07:37:17;;;;;;;7.93;4.85;;;;;;;6.53;59.89;101309.66;4989918;28;120079;-76
2022/11/19 07:39:45;;;;;;;6.63;4.65;;;;;;;6.51;60.54;101314.75;4973653;28;119681;-78
2022/11/19 07:44:55;;;;;;;8.13;5.05;;;;;;;6.49;60.63;101317.09;4984540;28;121125;-75
2022/11/19 07:47:21;;;;;;;9.10;6.05;;;;;;;6.51;60.47;101308.53;4985069;28;119361;-79
2022/11/19 07:49:47;;;;;;;7.47;5.57;;;;;;;6.53;60.77;101311.59;4980180;28;119752;-75
2022/11/19 07:52:12;;;;;;;7.30;5.03;;;;;;;6.53;61.04;101303.44;4986907;28;119330;-78
2022/11/19 07:54:38;;;;;;;6.85;4.60;;;;;;;6.58;60.65;101311.94;4989380;28;119556;-78
2022/11/19 07:57:04;;;;;;;6.93;5.07;;;;;;;6.58;60.11;101311.16;4977943;28;119932;-75
2022/11/19 07:59:30;;;;;;;7.00;4.70;;;;;;;6.53;60.05;101309.66;4986314;28;119408;-75
2022/11/19 08:01:55;;;;;;;6.63;4.73;;;;;;;6.48;59.72;101307.38;4987704;28;119295;-76
2022/11/19 08:04:21;;;;;;;7.17;4.40;;;;;;;6.50;59.37;101307.75;4950885;28;122566;-81
2022/11/19 08:06:47;;;;;;;7.50;4.90;;;;;;;6.51;59.84;101317.47;4987672;28;120022;-78
2022/11/19 08:09:13;;;;;;;7.32;4.90;;;;;;;6.50;59.97;101315.16;4986441;28;119543;-79
2022/11/19 08:11:39;;;;;;;7.10;4.83;;;;;;;6.47;60.04;101324.91;4986620;28;119790;-77
2022/11/19 08:14:05;;;;;;;7.35;5.38;;;;;;;6.45;59.79;101319.09;4969437;28;119931;-75
2022/11/19 08:19:28;;;;;;;11.80;7.82;;;;;;;6.45;60.33;101313.66;4958987;28;119776;-75
2022/11/19 08:21:54;;;;;;;9.10;5.83;;;;;;;6.49;60.74;101322.56;4984521;28;119719;-77
2022/11/19 08:24:20;;;;;;;7.13;4.50;;;;;;;6.49;61.02;101314.38;4984896;28;120153;-76
2022/11/19 08:26:46;;;;;;;5.80;4.20;;;;;;;6.63;61.23;101313.47;4984309;28;119867;-75
2022/11/19 08:29:13;;;;;;;6.78;4.25;;;;;;;6.72;60.85;101317.22;4985305;28;120049;-75
2022/11/19 08:31:41;;;;;;;5.35;4.40;;;;;;;6.81;60.57;101313.22;4965792;28;120258;-80
2022/11/19 08:34:07;;;;;;;7.03;4.35;;;;;;;6.89;61.25;101315.47;4986121;28;119442;-77
2022/11/19 08:37:01;;;;;;;5.43;4.57;;;;;;;7.01;61.52;101319.59;4985461;28;119908;-78
2022/11/19 08:39:27;;;;;;;5.63;4.30;;;;;;;7.10;60.90;101314.41;4989526;28;119794;-76
2022/11/19 08:44:37;;;;;;;6.37;4.57;;;;;;;7.26;60.40;101313.78;4969389;28;119921;-76
2022/11/19 08:47:09;;;;;;;8.13;4.72;;;;;;;7.29;60.90;101313.72;4983989;28;119765;-76
2022/11/19 08:49:35;;;;;;;7.97;5.00;;;;;;;7.37;61.11;101304.28;4967738;28;119804;-75
2022/11/19 08:52:01;;;;;;;9.25;5.40;;;;;;;7.41;60.75;101314.38;4984951;28;119490;-77
2022/11/19 08:54:27;;;;;;;7.60;5.30;;;;;;;7.44;61.21;101305.34;4985213;28;119365;-80
2022/11/19 08:56:53;;;;;;;6.70;4.63;;;;;;;7.53;60.38;101308.31;4985447;28;120017;-77
2022/11/19 08:59:39;;;;;;;6.75;4.65;;;;;;;7.53;60.48;101297.41;4961028;28;119510;-83
2022/11/19 09:02:05;;;;;;;6.97;4.60;;;;;;;7.62;61.34;101306.63;4988554;28;120061;-75
2022/11/19 09:04:30;;;;;;;7.03;4.78;;;;;;;7.69;61.49;101306.50;4965453;28;122397;-76
2022/11/19 09:06:56;;;;;;;6.22;4.20;;;;;;;7.70;60.64;101308.03;4978728;28;119763;-75
2022/11/19 09:09:22;;;;;;;5.60;4.30;;;;;;;7.75;60.29;101298.59;4967297;28;119555;-76
2022/11/19 09:11:54;;;;;;;6.90;4.27;;;;;;;7.81;60.37;101307.88;4984698;28;119888;-79
2022/11/19 09:14:21;;;;;;;7.82;4.50;;;;;;;7.86;60.14;101310.13;4968151;28;119654;-75
2022/11/19 09:16:47;;;;;;;8.07;4.60;;;;;;;7.87;60.70;101300.75;4950014;28;119470;-76
2022/11/19 09:19:13;;;;;;;6.03;5.10;;;;;;;7.95;60.62;101296.69;4983024;28;119589;-81
2022/11/19 09:21:38;;;;;;;8.50;5.30;;;;;;;7.95;60.55;101296.69;4966873;28;119659;-76
2022/11/19 09:24:04;;;;;;;5.90;4.50;;;;;;;8.07;60.36;101295.34;4968584;28;119336;-76
2022/11/19 09:26:48;;;;;;;7.65;4.90;;;;;;;8.11;60.58;101298.78;4984486;28;119491;-75
2022/11/19 09:29:14;;;;;;;7.78;5.07;;;;;;;8.12;60.45;101294.06;4965471;28;120176;-78
2022/11/19 09:31:40;;;;;;;7.33;4.63;;;;;;;8.18;60.29;101295.91;4983835;28;120125;-81
2022/11/19 09:34:06;;;;;;;6.10;4.50;;;;;;;8.25;60.52;101293.03;4966545;28;119630;-76
2022/11/19 09:36:38;;;;;;;9.63;4.37;;;;;;;8.29;60.50;101288.28;4983308;28;119596;-79
2022/11/19 09:39:04;;;;;;;7.35;4.25;;;;;;;8.35;59.25;101288.59;4984079;28;119737;-75
2022/11/19 09:41:33;;;;;;;8.30;4.82;;;;;;;8.37;60.27;101277.25;4967124;28;119541;-75
2022/11/19 09:44:31;;;;;;;9.43;5.13;;;;;;;8.36;60.18;101276.47;4987920;28;119586;-79
2022/11/19 09:47:01;;;;;;;7.15;4.03;;;;;;;8.38;59.68;101282.28;4950438;28;120256;-76
2022/11/19 09:49:36;;;;;;;5.68;4.50;;;;;;;8.39;60.20;101280.31;4984738;28;119503;-81
2022/11/19 09:52:06;;;;;;;6.87;4.20;;;;;;;8.49;60.97;101277.38;4966092;28;119970;-75
2022/11/19 09:55:02;;;;;;;6.70;4.03;;;;;;;8.57;59.58;101284.25;4967912;28;119894;-76
2022/11/19 09:57:38;;;;;;;8.30;5.63;;;;;;;8.61;59.90;101287.69;4977805;28;119787;-75
2022/11/19 10:00:06;;;;;;;8.63;5.25;;;;;;;8.60;59.23;101283.41;4978388;28;119407;-76
2022/11/19 10:03:12;;;;;;;18.00;8.68;;;;;;;8.54;59.37;101274.16;4980244;28;119810;-76
2022/11/19 10:05:54;;;;;;;20.73;10.15;;;;;;;8.48;59.91;101264.13;4983119;28;119636;-75
2022/11/19 10:08:39;;;;;;;30.77;13.10;;;;;;;8.43;60.19;101264.63;4967662;28;120469;-76
2022/11/19 10:11:05;;;;;;;15.63;6.93;;;;;;;8.44;59.76;101263.41;4945727;28;120124;-76
2022/11/19 10:13:53;;;;;;;13.88;6.93;;;;;;;8.43;59.83;101268.13;4983535;28;119496;-76
2022/11/19 10:16:25;;;;;;;7.32;4.80;;;;;;;8.44;60.14;101264.19;4983295;28;119586;-76
2022/11/19 10:19:19;;;;;;;17.05;8.35;;;;;;;8.47;60.37;101266.06;4966470;28;120024;-75
2022/11/19 10:22:06;;;;;;;20.13;10.75;;;;;;;8.49;60.50;101269.16;4983256;28;119738;-76
2022/11/19 10:24:41;;;;;;;14.40;6.72;;;;;;;8.53;60.56;101264.41;4982853;28;119662;-76
2022/11/19 10:27:26;;;;;;;23.98;11.20;;;;;;;8.58;60.86;101272.13;4984001;28;120122;-76
2022/11/19 10:30:01;;;;;;;16.88;8.25;;;;;;;8.59;60.75;101257.25;4948304;28;120655;-80
2022/11/19 10:32:36;;;;;;;9.50;5.40;;;;;;;8.63;60.67;101253.66;4986355;28;119698;-78
2022/11/19 10:35:10;;;;;;;4.97;4.22;;;;;;;8.65;59.51;101245.81;4961258;28;119928;-75
2022/11/19 10:37:45;;;;;;;5.97;3.85;;;;;;;8.64;59.22;101241.53;4983205;28;119605;-75
2022/11/19 10:40:13;;;;;;;6.75;3.60;;;;;;;8.66;59.36;101241.88;4983423;28;119637;-78
2022/11/19 10:42:44;;;;;;;5.65;3.67;;;;;;;8.63;58.60;101229.06;4983611;28;119744;-83
2022/11/19 10:45:21;;;;;;;5.95;3.33;;;;;;;8.74;58.80;101235.06;4983674;28;119600;-75
2022/11/19 10:48:05;;;;;;;5.73;3.40;;;;;;;8.85;59.79;101235.59;4984316;28;119858;-75
2022/11/19 10:50:31;;;;;;;5.72;3.53;;;;;;;8.97;58.86;101223.22;4983171;28;119309;-78
2022/11/19 10:53:15;;;;;;;5.70;3.05;;;;;;;8.98;57.80;101220.06;4967455;28;120236;-80
2022/11/19 10:55:45;;;;;;;5.30;3.00;;;;;;;9.06;56.99;101223.41;4987875;28;119963;-75
2022/11/19 10:58:17;;;;;;;5.47;2.60;;;;;;;9.11;58.37;101220.16;4983558;28;119573;-75
2022/11/19 11:00:43;;;;;;;7.27;2.87;;;;;;;9.17;57.53;101207.50;4983047;28;120183;-78
2022/11/19 11:03:26;;;;;;;4.53;2.80;;;;;;;9.21;55.75;101217.16;4965397;28;120022;-75
2022/11/19 11:06:05;;;;;;;4.07;2.88;;;;;;;9.21;56.32;101208.19;4982710;28;119976;-76
2022/11/19 11:08:32;;;;;;;5.47;2.65;;;;;;;9.21;55.90;101206.22;4983510;28;119877;-75
2022/11/19 11:11:00;;;;;;;4.65;2.90;;;;;;;9.30;55.92;101208.38;4982614;28;120254;-76
2022/11/19 11:16:43;;;;;;;4.22;3.08;;;;;;;9.28;55.12;101201.78;4983692;28;120084;-78
2022/11/19 11:19:17;;;;;;;4.47;2.88;;;;;;;9.22;55.11;101191.31;4969591;28;119503;-75
2022/11/19 11:21:53;;;;;;;5.47;2.77;;;;;;;9.19;53.97;101194.16;4983644;28;119682;-76
2022/11/19 11:24:20;;;;;;;5.78;2.90;;;;;;;9.17;55.42;101185.59;4965209;28;119902;-75
2022/11/19 11:26:46;;;;;;;6.10;2.80;;;;;;;9.18;54.71;101189.88;4980361;28;119850;-76
2022/11/19 11:29:11;;;;;;;4.45;2.88;;;;;;;9.21;54.03;101189.03;4949249;28;119878;-78
2022/11/19 11:31:41;;;;;;;5.00;2.85;;;;;;;9.21;54.82;101187.06;4983620;28;120967;-81
2022/11/19 11:34:25;;;;;;;4.30;2.50;;;;;;;9.19;53.81;101188.69;4983254;28;119658;-76
2022/11/19 11:36:52;;;;;;;3.88;2.40;;;;;;;9.13;54.84;101179.44;4959792;28;119897;-76
2022/11/19 11:39:30;;;;;;;4.60;2.10;;;;;;;9.25;54.72;101189.72;4982472;28;119363;-78
2022/11/19 11:41:58;;;;;;;4.38;1.90;;;;;;;9.28;54.64;101188.09;4986812;28;119692;-75
2022/11/19 11:44:27;;;;;;;4.55;2.33;;;;;;;9.36;54.36;101178.50;4968011;28;121897;-76
2022/11/19 11:47:00;;;;;;;4.55;2.03;;;;;;;9.34;52.85;101180.91;4966257;28;119994;-77
2022/11/19 11:49:34;;;;;;;4.03;2.10;;;;;;;9.33;53.68;101180.13;4983532;28;119642;-76
2022/11/19 11:52:08;;;;;;;7.53;2.20;;;;;;;9.22;53.03;101188.59;4984480;28;120180;-74
2022/11/19 11:54:35;;;;;;;3.03;2.08;;;;;;;9.13;52.59;101174.75;4962076;28;119395;-75
2022/11/19 11:57:13;;;;;;;3.80;2.05;;;;;;;9.10;52.80;101172.88;4985216;28;119632;-74
2022/11/19 11:59:39;;;;;;;4.22;2.13;;;;;;;9.16;53.45;101167.66;4980809;28;120487;-73
2022/11/19 12:03:03;;;;;;;3.20;1.90;;;;;;;9.22;52.06;101165.91;4991450;28;119809;-74
2022/11/19 12:06:14;;;;;;;4.03;2.00;;;;;;;9.33;53.26;101149.25;4985390;28;120268;-75
2022/11/19 12:09:03;;;;;;;4.40;2.22;;;;;;;9.40;53.48;101154.53;4984405;28;120307;-75
2022/11/19 12:11:53;;;;;;;3.15;2.22;;;;;;;9.41;52.76;101145.88;4964084;28;119528;-76
2022/11/19 12:14:46;;;;;;;4.30;2.20;;;;;;;9.37;52.48;101150.69;4965276;28;120790;-75
2022/11/19 12:17:43;;;;;;;3.53;2.10;;;;;;;9.35;52.89;101146.84;4972160;28;119814;-75
2022/11/19 12:20:35;;;;;;;3.85;2.03;;;;;;;9.30;52.89;101145.41;4974021;28;119406;-75